Time;durP1;ratioP1;P1;durP2;ratioP2;P2;SDS_P1;SDS_P2;PMS_P1;PMS_P2;Temp;Humidity;BMP_temperature;BMP_pressure;BME280_temperature;BME280_humidity;BME280_pressure;Samples;Min_cycle;Max_cycle;Signal;HPM_P1;HPM_P2
2023/09/14 00:00:45;;;;;;;6.80;1.70;;;;;;;16.64;100.00;99733.77;109591;1252;61242;-68
2023/09/14 00:03:32;;;;;;;7.80;1.90;;;;;;;16.62;100.00;99735.70;109393;1253;74118;-67
2023/09/14 00:06:18;;;;;;;6.40;1.80;;;;;;;16.60;100.00;99740.27;109527;1254;68180;-67
2023/09/14 00:09:05;;;;;;;6.20;1.70;;;;;;;16.59;100.00;99741.67;109560;1253;70669;-67
2023/09/14 00:11:51;;;;;;;5.50;1.50;;;;;;;16.58;100.00;99739.09;109480;1254;60390;-68
2023/09/14 00:14:37;;;;;;;7.40;1.80;;;;;;;16.56;100.00;99742.38;109559;1256;61041;-67
2023/09/14 00:17:24;;;;;;;6.20;1.50;;;;;;;16.53;100.00;99745.52;109555;1253;73133;-68
2023/09/14 00:20:17;;;;;;;6.00;1.60;;;;;;;16.51;100.00;99744.70;109367;1253;67880;-68
2023/09/14 00:23:03;;;;;;;6.20;1.50;;;;;;;16.49;100.00;99743.21;109230;1254;72668;-67
2023/09/14 00:25:50;;;;;;;5.80;1.60;;;;;;;16.47;100.00;99740.77;109500;1253;59321;-68
2023/09/14 00:28:36;;;;;;;5.10;1.50;;;;;;;16.46;100.00;99743.20;109564;1252;58830;-69
2023/09/14 00:31:22;;;;;;;6.80;1.70;;;;;;;16.44;100.00;99739.84;109506;1253;72885;-67
2023/09/14 00:34:09;;;;;;;5.90;1.70;;;;;;;16.44;100.00;99743.13;109515;1254;68704;-68
2023/09/14 00:36:55;;;;;;;5.30;1.50;;;;;;;16.41;100.00;99739.87;109510;1252;71094;-66
2023/09/14 00:39:42;;;;;;;5.70;1.50;;;;;;;16.41;100.00;99741.98;109362;1252;59299;-67
2023/09/14 00:42:28;;;;;;;6.40;1.80;;;;;;;16.39;100.00;99741.98;109344;1253;60102;-69
2023/09/14 00:45:18;;;;;;;6.80;1.70;;;;;;;16.40;100.00;99741.55;109533;1253;73836;-69
2023/09/14 00:48:06;;;;;;;6.80;1.80;;;;;;;16.38;100.00;99741.55;109389;1253;68668;-69
2023/09/14 00:50:52;;;;;;;6.00;1.60;;;;;;;16.39;100.00;99743.30;109332;1257;72624;-70
2023/09/14 00:53:39;;;;;;;6.80;1.80;;;;;;;16.38;100.00;99740.38;109485;1253;59392;-69
2023/09/14 00:56:27;;;;;;;6.80;2.10;;;;;;;16.36;100.00;99743.05;109504;1253;61216;-69
2023/09/14 00:59:13;;;;;;;6.30;2.10;;;;;;;16.37;100.00;99744.96;109279;1252;74067;-68
2023/09/14 01:02:00;;;;;;;5.90;1.60;;;;;;;16.32;100.00;99741.15;109395;1253;67878;-69
2023/09/14 01:04:48;;;;;;;5.20;1.50;;;;;;;16.34;100.00;99745.93;109395;1254;72435;-70
2023/09/14 01:07:35;;;;;;;5.50;1.70;;;;;;;16.34;100.00;99754.13;109249;1253;59443;-69
2023/09/14 01:10:22;;;;;;;5.70;1.60;;;;;;;16.33;100.00;99757.68;109372;1254;60330;-69
2023/09/14 01:13:36;;;;;;;6.90;1.70;;;;;;;16.31;100.00;99758.23;109323;1253;72808;-68
2023/09/14 01:17:00;;;;;;;7.10;1.60;;;;;;;16.24;100.00;99760.10;109334;1253;67797;-67
2023/09/14 01:20:03;;;;;;;5.70;1.40;;;;;;;16.20;100.00;99762.81;109484;1254;73487;-67
2023/09/14 01:23:52;;;;;;;5.50;1.40;;;;;;;16.17;100.00;99768.30;109360;1253;58310;-67
2023/09/14 01:26:40;;;;;;;6.80;1.50;;;;;;;16.12;100.00;99767.05;109356;1253;60250;-68
2023/09/14 01:29:27;;;;;;;5.90;1.70;;;;;;;16.07;100.00;99769.52;109483;1253;72796;-70
2023/09/14 01:32:13;;;;;;;6.60;1.70;;;;;;;16.05;100.00;99772.11;109406;1254;66700;-69
2023/09/14 01:34:59;;;;;;;5.50;1.50;;;;;;;16.04;100.00;99773.76;109485;1254;73686;-69
2023/09/14 01:37:46;;;;;;;6.50;1.40;;;;;;;16.04;100.00;99773.66;109434;1254;59441;-67
2023/09/14 01:40:36;;;;;;;5.20;1.40;;;;;;;16.03;100.00;99778.09;109523;1252;60071;-67
2023/09/14 01:43:23;;;;;;;5.30;1.60;;;;;;;15.99;100.00;99778.38;109382;1253;72978;-67
2023/09/14 01:46:10;;;;;;;5.90;1.30;;;;;;;15.96;100.00;99779.45;109410;1253;68803;-67
2023/09/14 01:48:56;;;;;;;5.70;1.50;;;;;;;15.94;100.00;99783.08;109305;1253;72404;-66
2023/09/14 01:51:43;;;;;;;5.50;1.80;;;;;;;15.91;100.00;99786.27;109460;1254;59234;-67
2023/09/14 01:54:29;;;;;;;6.00;1.50;;;;;;;15.87;100.00;99786.81;109402;1253;60507;-67
2023/09/14 01:57:15;;;;;;;6.80;1.40;;;;;;;15.85;100.00;99783.89;109509;1253;72822;-66
2023/09/14 02:00:02;;;;;;;5.90;1.60;;;;;;;15.83;100.00;99784.09;109434;1253;67672;-69
2023/09/14 02:02:50;;;;;;;5.30;1.50;;;;;;;15.81;100.00;99782.99;109380;1253;72824;-66
2023/09/14 02:05:40;;;;;;;5.60;1.40;;;;;;;15.79;100.00;99784.66;109517;1254;59497;-67
2023/09/14 02:08:27;;;;;;;5.70;1.50;;;;;;;15.73;100.00;99790.09;109511;1253;58865;-66
2023/09/14 02:11:13;;;;;;;6.30;1.50;;;;;;;15.71;100.00;99796.95;109402;1253;73772;-66
2023/09/14 02:13:59;;;;;;;5.60;1.60;;;;;;;15.65;100.00;99796.91;109390;1253;67624;-66
2023/09/14 02:16:45;;;;;;;6.50;1.90;;;;;;;15.60;100.00;99800.31;109483;1253;71438;-66
2023/09/14 02:19:32;;;;;;;5.10;1.50;;;;;;;15.56;100.00;99801.98;109494;1253;60532;-66
2023/09/14 02:22:18;;;;;;;6.40;1.60;;;;;;;15.56;100.00;99804.71;109260;1253;59421;-68
2023/09/14 02:25:06;;;;;;;6.40;1.50;;;;;;;15.54;100.00;99803.66;109416;1253;72816;-67
2023/09/14 02:27:53;;;;;;;6.60;1.80;;;;;;;15.53;100.00;99805.20;109481;1253;67578;-67
2023/09/14 02:30:40;;;;;;;5.40;1.60;;;;;;;15.54;100.00;99806.34;109515;1253;72557;-67
2023/09/14 02:33:26;;;;;;;5.70;1.50;;;;;;;15.56;100.00;99805.92;109497;1254;59642;-71
2023/09/14 02:36:13;;;;;;;6.20;1.60;;;;;;;15.59;100.00;99807.61;109552;1252;58764;-68
2023/09/14 02:38:59;;;;;;;5.50;1.50;;;;;;;15.61;100.00;99815.03;109378;1252;74154;-67
2023/09/14 02:41:46;;;;;;;7.90;1.30;;;;;;;15.64;100.00;99814.71;109393;1253;68771;-68
2023/09/14 02:44:35;;;;;;;6.60;1.40;;;;;;;15.66;100.00;99813.16;109558;1252;72546;-68
2023/09/14 02:47:21;;;;;;;5.80;1.30;;;;;;;15.67;100.00;99812.46;109483;1253;59713;-68
2023/09/14 02:50:08;;;;;;;6.20;1.40;;;;;;;15.69;100.00;99810.19;109375;1253;60500;-67
2023/09/14 02:52:55;;;;;;;6.00;1.50;;;;;;;15.71;100.00;99816.04;109360;1254;73809;-68
2023/09/14 02:55:41;;;;;;;5.30;1.60;;;;;;;15.71;100.00;99811.54;109455;1253;69146;-68
2023/09/14 02:58:27;;;;;;;5.40;1.30;;;;;;;15.70;100.00;99815.77;109382;1252;71177;-68
2023/09/14 03:01:14;;;;;;;5.30;1.40;;;;;;;15.68;100.00;99819.92;109522;1252;59451;-68
2023/09/14 03:04:01;;;;;;;5.10;1.00;;;;;;;15.67;100.00;99825.02;109445;1253;61415;-68
2023/09/14 03:06:47;;;;;;;6.70;1.40;;;;;;;15.65;100.00;99822.67;109394;1252;72769;-70
2023/09/14 03:09:34;;;;;;;5.60;1.50;;;;;;;15.63;100.00;99833.05;109326;1254;67374;-69
2023/09/14 03:12:20;;;;;;;5.60;1.40;;;;;;;15.61;100.00;99829.86;109208;1254;72717;-70
2023/09/14 03:15:07;;;;;;;5.50;1.40;;;;;;;15.61;100.00;99830.29;109346;1254;60817;-69
2023/09/14 03:17:53;;;;;;;6.00;1.20;;;;;;;15.58;100.00;99830.73;109378;1254;60450;-68
2023/09/14 03:20:45;;;;;;;5.10;1.30;;;;;;;15.56;100.00;99839.23;109364;1254;74157;-69
2023/09/14 03:23:33;;;;;;;6.00;1.30;;;;;;;15.55;100.00;99846.44;109406;1254;67778;-68
2023/09/14 03:26:19;;;;;;;6.60;1.60;;;;;;;15.56;100.00;99851.27;109372;1254;71389;-68
2023/09/14 03:29:07;;;;;;;5.90;1.40;;;;;;;15.59;100.00;99856.23;109249;1254;59378;-68
2023/09/14 03:31:53;;;;;;;6.60;1.40;;;;;;;15.61;100.00;99864.66;109453;1254;60327;-68
2023/09/14 03:34:40;;;;;;;6.20;1.60;;;;;;;15.64;100.00;99868.60;109371;1254;72945;-69
2023/09/14 03:37:26;;;;;;;5.80;1.40;;;;;;;15.66;100.00;99869.25;109326;1254;68586;-69
2023/09/14 03:40:13;;;;;;;5.60;1.40;;;;;;;15.67;100.00;99874.85;109275;1254;71131;-69
2023/09/14 03:43:00;;;;;;;6.60;1.40;;;;;;;15.69;100.00;99879.86;109308;1254;58287;-69
2023/09/14 03:45:46;;;;;;;5.20;1.40;;;;;;;15.72;100.00;99884.21;109269;1254;61349;-69
2023/09/14 03:48:33;;;;;;;7.60;1.70;;;;;;;15.74;100.00;99882.25;109457;1254;71809;-69
2023/09/14 03:51:20;;;;;;;6.40;1.50;;;;;;;15.74;100.00;99887.77;109225;1254;69002;-69
2023/09/14 03:54:06;;;;;;;6.70;1.60;;;;;;;15.75;100.00;99890.36;109455;1254;71867;-68
2023/09/14 03:56:56;;;;;;;6.50;1.50;;;;;;;15.73;100.00;99886.83;109393;1254;58198;-68
2023/09/14 03:59:47;;;;;;;6.60;1.60;;;;;;;15.75;100.00;99893.09;109347;1252;58909;-69
2023/09/14 04:02:33;;;;;;;5.60;1.50;;;;;;;15.74;100.00;99896.14;109390;1252;71506;-68
2023/09/14 04:05:20;;;;;;;5.70;1.40;;;;;;;15.75;100.00;99897.55;109278;1252;67784;-69
2023/09/14 04:08:07;;;;;;;6.30;1.60;;;;;;;15.71;100.00;99901.14;109333;1253;72786;-70
2023/09/14 04:10:53;;;;;;;4.90;1.20;;;;;;;15.68;100.00;99911.11;109440;1252;58250;-69
2023/09/14 04:13:39;;;;;;;6.40;1.50;;;;;;;15.65;100.00;99921.41;109373;1253;59994;-69
2023/09/14 04:16:28;;;;;;;7.80;1.40;;;;;;;15.63;100.00;99924.52;109391;1253;72913;-70
2023/09/14 04:19:14;;;;;;;6.00;1.40;;;;;;;15.60;100.00;99924.23;109353;1253;67870;-70
2023/09/14 04:22:01;;;;;;;7.60;1.60;;;;;;;15.57;100.00;99931.34;109529;1252;72545;-70
2023/09/14 04:24:49;;;;;;;5.60;1.30;;;;;;;15.57;100.00;99933.02;109395;1253;59389;-69
2023/09/14 04:27:36;;;;;;;5.60;1.40;;;;;;;15.53;100.00;99936.63;109366;1252;59748;-69
2023/09/14 04:30:25;;;;;;;6.40;1.30;;;;;;;15.51;100.00;99939.08;109429;1252;74058;-71
2023/09/14 04:33:13;;;;;;;5.90;1.40;;;;;;;15.52;100.00;99935.80;109423;1253;67560;-72
2023/09/14 04:36:05;;;;;;;7.00;1.50;;;;;;;15.54;100.00;99940.61;109349;1253;72714;-69
2023/09/14 04:38:52;;;;;;;4.50;1.20;;;;;;;15.53;100.00;99942.07;109203;1253;216270;-69
2023/09/14 04:41:39;;;;;;;6.70;1.40;;;;;;;15.54;100.00;99946.27;109559;1253;60383;-68
2023/09/14 04:44:25;;;;;;;5.30;1.40;;;;;;;15.54;100.00;99948.98;109369;1253;72627;-70
2023/09/14 04:47:11;;;;;;;5.80;1.30;;;;;;;15.60;100.00;99955.40;109509;1252;67993;-70
2023/09/14 04:49:58;;;;;;;6.70;1.20;;;;;;;15.64;100.00;99959.23;109431;1253;71814;-69
2023/09/14 04:52:44;;;;;;;5.30;1.40;;;;;;;15.70;100.00;99962.42;109364;1253;59423;-72
2023/09/14 04:55:31;;;;;;;6.30;1.30;;;;;;;15.76;100.00;99961.23;109451;1252;61052;-71
2023/09/14 04:58:17;;;;;;;6.90;1.10;;;;;;;15.80;100.00;99965.35;109231;1252;73103;-71
2023/09/14 05:01:05;;;;;;;5.20;1.50;;;;;;;15.85;100.00;99967.88;109497;1252;66328;-69
2023/09/14 05:03:51;;;;;;;6.10;1.20;;;;;;;15.87;100.00;99971.65;109329;1252;73657;-70
2023/09/14 05:06:38;;;;;;;5.40;1.10;;;;;;;15.89;100.00;99976.63;109359;1253;59291;-69
2023/09/14 05:09:25;;;;;;;4.70;1.10;;;;;;;15.87;100.00;99974.50;109401;1252;59031;-68
2023/09/14 05:12:13;;;;;;;4.80;0.90;;;;;;;15.93;100.00;99979.48;109383;1252;73082;-70
2023/09/14 05:14:59;;;;;;;5.30;1.20;;;;;;;15.94;100.00;99981.86;109362;1252;67930;-69
2023/09/14 05:17:47;;;;;;;6.20;1.20;;;;;;;15.95;100.00;99982.45;109351;1253;72600;-70
2023/09/14 05:20:33;;;;;;;5.00;1.10;;;;;;;15.97;100.00;99978.73;109481;1252;58186;-69
2023/09/14 05:23:19;;;;;;;5.50;1.20;;;;;;;16.02;100.00;99988.90;109432;1253;58847;-69
2023/09/14 05:26:06;;;;;;;6.30;1.20;;;;;;;16.08;100.00;99993.70;109361;1252;73777;-68
2023/09/14 05:28:53;;;;;;;5.50;1.10;;;;;;;16.13;100.00;99994.73;109246;1252;66928;-72
2023/09/14 05:31:40;;;;;;;5.10;1.20;;;;;;;16.18;100.00;99994.62;109519;1252;72781;-71
2023/09/14 05:34:27;;;;;;;4.80;1.20;;;;;;;16.28;100.00;100000.72;109488;1252;60405;-68
2023/09/14 05:37:14;;;;;;;7.00;1.30;;;;;;;16.40;100.00;100007.98;109327;1253;61233;-71
2023/09/14 05:40:09;;;;;;;5.90;1.40;;;;;;;16.50;100.00;100013.92;109436;1252;71834;-68
2023/09/14 05:42:57;;;;;;;5.70;1.20;;;;;;;16.57;100.00;100015.88;109389;1252;67823;-69
2023/09/14 05:45:44;;;;;;;5.70;1.50;;;;;;;16.72;100.00;100015.02;109465;1252;70745;-71
2023/09/14 05:48:31;;;;;;;7.20;1.40;;;;;;;16.86;100.00;100014.14;109412;1252;58106;-66
2023/09/14 05:51:18;;;;;;;4.90;1.20;;;;;;;17.01;100.00;100018.15;109367;1252;58721;-71
2023/09/14 05:54:05;;;;;;;6.00;1.30;;;;;;;17.17;100.00;100019.28;109442;1252;73103;-70
2023/09/14 05:56:51;;;;;;;7.00;1.20;;;;;;;17.19;100.00;100020.20;109362;1252;66526;-71
2023/09/14 05:59:38;;;;;;;6.70;1.40;;;;;;;17.19;100.00;100019.63;109490;1252;71189;-69
2023/09/14 06:02:26;;;;;;;6.50;1.40;;;;;;;17.19;100.00;100021.17;109345;1253;59387;-70
2023/09/14 06:05:13;;;;;;;6.50;1.60;;;;;;;17.19;100.00;100025.20;109337;1253;61112;-68
2023/09/14 06:08:12;;;;;;;6.60;1.40;;;;;;;17.18;100.00;100026.64;109484;1252;72985;-70
2023/09/14 06:11:00;;;;;;;6.10;1.70;;;;;;;17.16;100.00;100028.73;109317;1254;68325;-70
2023/09/14 06:13:46;;;;;;;6.90;1.50;;;;;;;17.16;100.00;100030.34;109287;1253;70867;-70
2023/09/14 06:16:32;;;;;;;7.10;1.50;;;;;;;17.16;100.00;100034.08;109298;1252;57996;-71
2023/09/14 06:19:19;;;;;;;6.80;1.70;;;;;;;17.15;100.00;100039.16;109454;1252;59086;-72
2023/09/14 06:22:06;;;;;;;7.00;1.40;;;;;;;17.14;100.00;100046.70;109360;1253;74087;-71
2023/09/14 06:24:52;;;;;;;10.10;1.70;;;;;;;17.07;100.00;100045.77;109206;1253;68397;-73
2023/09/14 06:27:40;;;;;;;7.50;1.50;;;;;;;16.97;100.00;100057.75;109192;1253;73489;-69
2023/09/14 06:30:26;;;;;;;6.60;1.50;;;;;;;16.88;100.00;100063.23;109486;1252;60616;-73
2023/09/14 06:33:13;;;;;;;6.50;1.60;;;;;;;16.84;100.00;100067.14;109522;1252;60086;-71
2023/09/14 06:35:59;;;;;;;6.90;1.50;;;;;;;16.79;100.00;100066.40;109559;1253;72674;-71
2023/09/14 06:38:47;;;;;;;6.40;1.60;;;;;;;16.81;100.00;100076.46;109511;1253;67626;-71
2023/09/14 06:41:33;;;;;;;7.40;1.80;;;;;;;16.84;100.00;100075.52;109403;1253;73748;-71
2023/09/14 06:44:23;;;;;;;7.00;1.60;;;;;;;16.91;100.00;100074.73;109420;1254;58161;-72
2023/09/14 06:47:09;;;;;;;7.60;1.90;;;;;;;16.94;100.00;100081.54;109595;1253;59186;-71
2023/09/14 06:49:55;;;;;;;6.30;1.80;;;;;;;16.97;100.00;100087.73;109483;1252;72863;-71
2023/09/14 06:52:42;;;;;;;6.50;1.50;;;;;;;16.97;100.00;100092.23;109528;1253;65561;-70
2023/09/14 06:55:28;;;;;;;7.50;1.70;;;;;;;17.01;100.00;100096.55;109381;1252;73714;-72
2023/09/14 06:58:14;;;;;;;9.60;2.20;;;;;;;17.12;100.00;100102.59;109478;1253;59620;-75
2023/09/14 07:01:03;;;;;;;7.40;1.90;;;;;;;17.29;100.00;100098.66;109253;1253;60058;-71
2023/09/14 07:03:51;;;;;;;7.00;1.80;;;;;;;17.47;100.00;100098.11;109403;1253;72795;-70
2023/09/14 07:06:38;;;;;;;8.40;1.70;;;;;;;17.63;99.86;100098.66;109442;1252;66626;-73
2023/09/14 07:09:24;;;;;;;6.90;1.60;;;;;;;17.78;98.72;100100.15;109202;1252;72715;-70
2023/09/14 07:12:11;;;;;;;8.40;1.90;;;;;;;17.82;97.57;100094.90;109450;1253;59649;-70
2023/09/14 07:14:57;;;;;;;6.70;1.90;;;;;;;17.79;97.38;100102.70;109508;1252;59692;-71
2023/09/14 07:17:44;;;;;;;6.80;1.80;;;;;;;17.75;97.02;100106.09;109217;1253;74165;-71
2023/09/14 07:20:31;;;;;;;7.60;1.80;;;;;;;17.90;97.25;100108.63;109349;1252;66721;-71
2023/09/14 07:23:17;;;;;;;7.50;2.00;;;;;;;18.45;95.99;100111.42;109454;1252;73495;-69
2023/09/14 07:26:05;;;;;;;7.10;1.60;;;;;;;18.88;93.83;100111.16;109268;1253;57733;-70
2023/09/14 07:28:51;;;;;;;6.50;1.60;;;;;;;19.44;90.06;100116.16;109524;1252;61153;-71
2023/09/14 07:31:39;;;;;;;6.10;1.40;;;;;;;20.01;88.04;100112.05;109285;1252;73099;-70
2023/09/14 07:34:25;;;;;;;7.10;1.90;;;;;;;20.13;85.71;100117.00;109527;1252;68694;-69
2023/09/14 07:37:13;;;;;;;6.30;1.60;;;;;;;20.19;85.70;100119.45;109380;1252;72688;-72
2023/09/14 07:39:59;;;;;;;6.40;1.60;;;;;;;20.16;84.13;100126.34;109402;1252;57864;-71
2023/09/14 07:42:46;;;;;;;6.50;1.70;;;;;;;20.98;83.50;100135.64;109418;1253;60038;-70
2023/09/14 07:45:33;;;;;;;6.70;1.80;;;;;;;21.60;79.92;100138.17;109372;1253;71802;-70
2023/09/14 07:48:20;;;;;;;7.10;1.80;;;;;;;22.17;76.39;100139.00;109490;1253;67713;-71
2023/09/14 07:51:06;;;;;;;6.40;1.50;;;;;;;23.00;72.39;100140.30;109508;1252;71399;-71
2023/09/14 07:53:55;;;;;;;7.70;1.90;;;;;;;24.86;65.97;100140.36;109429;1252;57724;-71
2023/09/14 07:56:43;;;;;;;7.00;1.50;;;;;;;26.49;57.69;100137.78;109634;1252;57784;-71
2023/09/14 07:59:29;;;;;;;6.10;1.30;;;;;;;27.94;53.56;100137.31;109571;1252;73095;-70
2023/09/14 08:02:15;;;;;;;6.50;1.50;;;;;;;29.31;47.74;100141.48;109360;1252;67591;-69
2023/09/14 08:05:01;;;;;;;6.50;1.30;;;;;;;29.79;47.02;100151.19;109443;1252;71319;-69
2023/09/14 08:07:48;;;;;;;6.10;1.20;;;;;;;28.64;46.91;100155.38;109453;1252;57221;-71
2023/09/14 08:10:35;;;;;;;6.70;1.40;;;;;;;27.37;48.30;100156.16;109534;1252;60231;-70
2023/09/14 08:13:22;;;;;;;6.20;1.10;;;;;;;26.18;50.44;100159.61;109492;1252;73032;-70
2023/09/14 08:16:09;;;;;;;5.90;1.20;;;;;;;25.17;53.82;100168.20;109489;1252;67937;-71
2023/09/14 08:18:55;;;;;;;6.40;1.40;;;;;;;24.34;56.33;100168.23;109328;1252;74020;-72
2023/09/14 08:21:42;;;;;;;6.70;1.40;;;;;;;23.62;58.47;100175.34;109507;1252;57461;-68
2023/09/14 08:24:29;;;;;;;6.40;1.30;;;;;;;22.99;61.00;100179.14;109409;1253;58724;-73
2023/09/14 08:27:16;;;;;;;6.30;1.40;;;;;;;22.53;62.95;100184.91;109333;1252;72933;-69
2023/09/14 08:30:02;;;;;;;6.20;1.30;;;;;;;22.30;64.68;100181.16;109531;1252;67394;-68
2023/09/14 08:32:49;;;;;;;7.10;1.40;;;;;;;22.21;65.42;100181.20;109355;1252;72668;-74
2023/09/14 08:35:36;;;;;;;6.20;1.40;;;;;;;22.15;65.38;100188.31;109118;1252;57961;-69
2023/09/14 08:38:25;;;;;;;6.60;1.50;;;;;;;21.94;65.42;100193.67;109353;1252;60241;-68
2023/09/14 08:41:36;;;;;;;5.90;1.30;;;;;;;21.64;65.79;100197.59;109308;1252;72082;-69
2023/09/14 08:44:23;;;;;;;6.90;1.50;;;;;;;21.40;66.90;100201.53;109471;1253;68260;-71
2023/09/14 08:47:10;;;;;;;6.70;1.50;;;;;;;21.22;66.82;100203.95;109397;1252;72464;-71
2023/09/14 08:50:00;;;;;;;8.10;1.90;;;;;;;22.17;65.66;100201.38;109484;1252;59005;-72
2023/09/14 08:52:46;;;;;;;6.70;1.60;;;;;;;24.11;59.37;100202.55;109486;1252;60127;-71
2023/09/14 08:55:35;;;;;;;6.70;1.20;;;;;;;25.75;53.79;100208.93;109225;1252;71120;-72
2023/09/14 08:58:23;;;;;;;6.40;1.60;;;;;;;27.46;49.09;100207.12;109315;1252;66332;-69
2023/09/14 09:01:13;;;;;;;8.00;1.60;;;;;;;29.06;45.51;100210.21;109500;1252;71292;-70
2023/09/14 09:04:00;;;;;;;7.70;1.20;;;;;;;30.49;41.23;100212.95;109227;1253;58905;-71
2023/09/14 09:06:48;;;;;;;7.00;1.50;;;;;;;31.60;37.37;100212.41;109495;1252;60221;-70
2023/09/14 09:09:36;;;;;;;6.20;1.20;;;;;;;32.48;35.63;100210.48;109439;1252;73888;-70
2023/09/14 09:12:22;;;;;;;6.40;1.40;;;;;;;32.84;35.32;100213.33;109283;1253;66529;-71
2023/09/14 09:15:10;;;;;;;6.80;1.20;;;;;;;32.57;35.54;100213.66;109089;1256;71312;-70
2023/09/14 09:18:08;;;;;;;7.40;1.20;;;;;;;31.70;35.79;100225.13;108896;1259;58224;-71
2023/09/14 09:20:57;;;;;;;6.30;1.40;;;;;;;30.52;37.16;100233.77;108960;1259;60120;-70
2023/09/14 09:23:44;;;;;;;6.10;1.50;;;;;;;30.15;38.33;100234.79;108912;1259;74097;-70
2023/09/14 09:26:35;;;;;;;6.30;1.30;;;;;;;30.62;37.60;100234.55;108950;1259;66830;-70
2023/09/14 09:29:22;;;;;;;5.70;1.30;;;;;;;30.03;37.65;100232.08;108957;1259;72428;-70
2023/09/14 09:32:20;;;;;;;7.50;1.80;;;;;;;29.73;38.64;100232.45;108911;1259;57949;-75
2023/09/14 09:35:26;;;;;;;6.00;1.40;;;;;;;28.76;39.98;100239.12;108938;1259;60115;-72
2023/09/14 09:38:16;;;;;;;6.10;1.40;;;;;;;27.40;41.89;100243.48;108898;1259;73397;-74
2023/09/14 09:41:11;;;;;;;6.20;1.40;;;;;;;26.19;44.13;100248.48;108896;1259;66046;-69
2023/09/14 09:43:57;;;;;;;6.40;1.50;;;;;;;25.09;46.50;100250.57;108918;1259;72529;-69
2023/09/14 09:46:44;;;;;;;6.90;1.30;;;;;;;24.25;48.76;100243.49;108998;1257;57278;-71
2023/09/14 09:49:31;;;;;;;6.30;1.40;;;;;;;23.79;50.79;100245.19;109298;1254;60100;-68
2023/09/14 09:52:18;;;;;;;6.60;1.50;;;;;;;25.55;49.07;100239.31;109395;1252;72948;-71
2023/09/14 09:55:08;;;;;;;7.90;1.50;;;;;;;27.54;43.54;100233.27;109358;1253;68934;-70
2023/09/14 09:57:58;;;;;;;5.90;1.40;;;;;;;28.05;40.84;100231.94;109490;1253;72611;-70
2023/09/14 10:00:44;;;;;;;5.80;1.30;;;;;;;29.45;38.35;100233.80;109382;1253;57949;-70
2023/09/14 10:03:32;;;;;;;6.90;1.40;;;;;;;30.53;36.55;100238.24;109548;1253;61149;-71
2023/09/14 10:06:18;;;;;;;6.30;1.30;;;;;;;30.07;36.86;100245.50;109526;1253;72890;-70
2023/09/14 10:09:11;;;;;;;5.60;1.30;;;;;;;31.03;36.06;100250.13;109242;1253;68390;-70
2023/09/14 10:12:03;;;;;;;6.50;1.10;;;;;;;31.25;34.92;100261.56;109469;1253;73534;-72
2023/09/14 10:14:52;;;;;;;6.00;1.20;;;;;;;29.76;36.40;100262.06;109308;1252;57398;-69
2023/09/14 10:17:39;;;;;;;6.70;1.20;;;;;;;28.22;38.72;100266.08;109433;1252;60305;-71
2023/09/14 10:20:25;;;;;;;6.50;1.30;;;;;;;26.78;41.55;100270.08;109554;1252;72980;-69
2023/09/14 10:23:15;;;;;;;7.50;1.60;;;;;;;25.56;43.68;100270.83;109426;1253;68156;-69
2023/09/14 10:26:02;;;;;;;7.00;1.20;;;;;;;24.71;46.07;100275.61;109229;1253;70655;-68
2023/09/14 10:28:49;;;;;;;8.00;1.30;;;;;;;24.05;47.89;100277.48;109503;1253;57825;-68
2023/09/14 10:31:36;;;;;;;7.40;1.60;;;;;;;23.81;49.35;100275.38;109368;1252;60192;-69
2023/09/14 10:34:24;;;;;;;6.70;1.90;;;;;;;25.21;47.65;100272.51;109508;1252;72910;-71
2023/09/14 10:37:11;;;;;;;6.40;1.30;;;;;;;26.59;45.23;100272.64;109482;1252;66456;-70
2023/09/14 10:39:59;;;;;;;7.50;1.40;;;;;;;26.14;43.96;100283.20;109487;1253;71624;-70
2023/09/14 10:42:45;;;;;;;7.10;1.50;;;;;;;25.24;44.43;100283.98;109300;1253;57764;-70
2023/09/14 10:45:36;;;;;;;6.50;1.40;;;;;;;24.46;46.48;100290.36;109521;1252;60031;-68
2023/09/14 10:48:29;;;;;;;5.40;1.40;;;;;;;23.81;48.32;100288.00;109199;1252;73083;-69
2023/09/14 10:51:15;;;;;;;6.10;1.50;;;;;;;23.26;48.82;100286.84;109305;1252;69145;-69
2023/09/14 10:54:02;;;;;;;6.80;1.50;;;;;;;22.99;50.08;100287.30;109489;1252;72829;-68
2023/09/14 10:56:55;;;;;;;7.10;1.70;;;;;;;22.92;51.07;100286.30;109298;1253;58709;-69
2023/09/14 10:59:52;;;;;;;7.60;1.80;;;;;;;23.01;50.59;100287.92;109294;1253;61206;-69
2023/09/14 11:02:45;;;;;;;7.00;1.60;;;;;;;24.00;49.40;100289.16;109518;1253;72128;-69
2023/09/14 11:05:41;;;;;;;6.70;1.70;;;;;;;25.55;46.81;100287.54;109537;1252;68912;-69
2023/09/14 11:09:06;;;;;;;6.70;1.80;;;;;;;26.69;42.60;100292.29;109489;1252;71187;-70
2023/09/14 11:11:54;;;;;;;8.50;2.10;;;;;;;26.03;42.35;100299.78;109499;1253;58690;-68
2023/09/14 11:15:11;;;;;;;7.30;1.40;;;;;;;25.72;43.23;100298.68;109419;1253;61256;-68
2023/09/14 11:17:58;;;;;;;6.40;1.70;;;;;;;25.09;44.02;100305.23;109360;1252;72841;-69
2023/09/14 11:20:48;;;;;;;6.20;1.60;;;;;;;24.56;45.57;100301.83;109234;1256;68689;-69
2023/09/14 11:23:36;;;;;;;5.60;1.50;;;;;;;24.42;46.15;100301.82;109288;1253;72510;-68
2023/09/14 11:26:34;;;;;;;5.50;1.50;;;;;;;25.30;44.61;100300.70;109305;1253;57734;-69
2023/09/14 11:29:27;;;;;;;5.70;1.40;;;;;;;26.25;43.48;100306.48;109207;1253;60191;-69
2023/09/14 11:32:22;;;;;;;7.30;1.40;;;;;;;26.90;40.77;100305.34;109396;1253;74312;-71
2023/09/14 11:35:12;;;;;;;6.70;1.50;;;;;;;27.65;39.77;100297.80;109297;1253;66546;-68
2023/09/14 11:38:07;;;;;;;7.30;1.60;;;;;;;28.47;38.49;100295.69;109288;1253;73334;-68
2023/09/14 11:40:55;;;;;;;6.90;1.40;;;;;;;29.07;37.11;100294.71;109319;1253;58251;-68
2023/09/14 11:44:05;;;;;;;6.00;1.60;;;;;;;28.43;37.57;100298.86;109347;1253;61284;-69
2023/09/14 11:46:59;;;;;;;6.70;1.40;;;;;;;27.89;37.10;100294.21;109307;1253;73925;-68
2023/09/14 11:49:59;;;;;;;6.10;1.40;;;;;;;27.88;36.82;100289.34;109334;1252;67595;-67
2023/09/14 11:52:46;;;;;;;6.10;1.50;;;;;;;27.91;37.43;100284.90;109216;1253;72807;-68
2023/09/14 11:55:33;;;;;;;6.30;1.50;;;;;;;28.04;37.92;100285.70;109291;1253;58035;-68
2023/09/14 11:58:23;;;;;;;5.50;1.40;;;;;;;27.91;37.47;100288.35;109478;1253;58991;-69
2023/09/14 12:01:09;;;;;;;6.40;1.40;;;;;;;27.57;37.17;100289.90;109440;1253;72195;-69
2023/09/14 12:03:58;;;;;;;5.10;1.20;;;;;;;27.21;37.84;100293.41;109357;1253;66535;-70
2023/09/14 12:06:44;;;;;;;7.40;1.30;;;;;;;27.01;38.55;100301.80;109529;1252;72590;-70
2023/09/14 12:09:41;;;;;;;6.30;1.40;;;;;;;26.23;39.60;100315.76;109326;1252;57725;-69
2023/09/14 12:12:30;;;;;;;5.40;1.20;;;;;;;25.46;40.97;100313.14;109532;1252;59088;-69
2023/09/14 12:15:22;;;;;;;6.20;1.30;;;;;;;24.77;42.00;100318.20;109338;1253;72831;-71
2023/09/14 12:18:10;;;;;;;5.90;1.50;;;;;;;24.19;43.37;100329.17;109538;1253;66607;-70
2023/09/14 12:20:56;;;;;;;6.00;1.30;;;;;;;23.73;44.51;100326.07;109301;1252;72606;-71
2023/09/14 12:23:47;;;;;;;6.60;1.40;;;;;;;23.34;45.55;100326.63;109537;1253;57218;-67
2023/09/14 12:26:34;;;;;;;7.00;1.30;;;;;;;23.21;46.24;100326.35;109362;1253;60173;-71
2023/09/14 12:29:23;;;;;;;6.20;1.60;;;;;;;22.95;47.18;100322.92;109531;1253;73134;-68
2023/09/14 12:32:10;;;;;;;7.40;2.40;;;;;;;22.70;47.90;100335.91;109315;1253;66729;-70
2023/09/14 12:34:58;;;;;;;6.80;1.90;;;;;;;22.69;48.38;100334.40;109284;1253;73507;-72
2023/09/14 12:37:45;;;;;;;5.60;1.50;;;;;;;22.69;47.16;100340.66;109407;1252;57902;-67
2023/09/14 12:40:37;;;;;;;7.50;1.70;;;;;;;22.71;47.57;100341.14;109365;1253;58429;-72
2023/09/14 12:43:26;;;;;;;6.90;1.60;;;;;;;22.66;48.51;100337.11;109392;1254;73082;-69
2023/09/14 12:46:14;;;;;;;7.40;1.60;;;;;;;22.61;49.27;100333.52;109418;1254;68913;-69
2023/09/14 12:49:01;;;;;;;5.50;1.40;;;;;;;22.47;49.42;100337.40;109285;1254;72535;-71
2023/09/14 12:51:48;;;;;;;6.90;1.30;;;;;;;22.33;49.65;100342.87;109383;1254;57502;-69
2023/09/14 12:54:35;;;;;;;6.40;1.60;;;;;;;22.21;50.04;100340.85;109335;1254;60049;-69